createdAt,value
2023-01-08T00:01:12.597Z,14.13
2023-01-08T00:03:39.620Z,14.10
2023-01-08T00:06:10.586Z,14.05
2023-01-08T00:08:37.231Z,14.02
2023-01-08T00:11:03.764Z,13.99
2023-01-08T00:13:30.276Z,13.98
2023-01-08T00:15:56.968Z,13.96
2023-01-08T00:18:24.878Z,13.94
2023-01-08T00:20:51.374Z,13.93
2023-01-08T00:23:19.449Z,13.92
2023-01-08T00:25:46.378Z,13.90
2023-01-08T00:28:15.073Z,13.90
2023-01-08T00:30:42.232Z,13.91
2023-01-08T00:33:09.941Z,13.93
2023-01-08T00:35:39.081Z,13.93
2023-01-08T00:38:05.929Z,13.93
2023-01-08T00:40:36.169Z,13.92
2023-01-08T00:43:03.577Z,13.93
2023-01-08T00:45:30.430Z,13.94
2023-01-08T00:47:57.122Z,13.96
2023-01-08T00:50:23.779Z,13.95
2023-01-08T00:52:50.391Z,13.98
2023-01-08T00:55:17.407Z,13.98
2023-01-08T00:57:44.130Z,13.99
2023-01-08T01:00:14.211Z,13.99
2023-01-08T01:02:41.365Z,13.99
2023-01-08T01:05:09.309Z,14.01
2023-01-08T01:07:36.178Z,14.02
2023-01-08T01:10:02.812Z,14.01
2023-01-08T01:12:29.948Z,14.00
2023-01-08T01:14:56.446Z,13.99
2023-01-08T01:17:22.993Z,13.98
2023-01-08T01:19:49.550Z,13.99
2023-01-08T01:22:16.076Z,13.98
2023-01-08T01:24:42.596Z,13.98
2023-01-08T01:27:09.087Z,13.98
2023-01-08T01:29:35.760Z,13.98
2023-01-08T01:32:02.249Z,13.99
2023-01-08T01:34:28.740Z,14.00
2023-01-08T01:36:55.358Z,14.01
2023-01-08T01:39:21.890Z,14.03
2023-01-08T01:41:48.602Z,14.02
2023-01-08T01:44:33.852Z,13.98
2023-01-08T01:47:04.621Z,13.96
2023-01-08T01:49:32.652Z,13.95
2023-01-08T01:52:04.317Z,13.94
2023-01-08T01:54:31.697Z,13.95
2023-01-08T01:57:00.279Z,13.95
2023-01-08T01:59:26.846Z,13.95
2023-01-08T02:01:55.418Z,13.96
2023-01-08T02:04:22.134Z,13.96
2023-01-08T02:07:01.295Z,13.98
2023-01-08T02:09:49.139Z,13.98
2023-01-08T02:12:26.357Z,14.02
2023-01-08T02:15:02.732Z,14.02
2023-01-08T02:17:52.409Z,14.02
2023-01-08T02:20:25.107Z,14.03
2023-01-08T02:23:18.950Z,13.98
2023-01-08T02:26:13.557Z,13.91
2023-01-08T02:28:45.619Z,13.84
2023-01-08T02:31:13.428Z,13.74
2023-01-08T02:33:40.424Z,13.61
2023-01-08T02:36:12.940Z,13.52
2023-01-08T02:39:00.846Z,13.43
2023-01-08T02:41:41.107Z,13.43
2023-01-08T02:44:12.546Z,13.40
2023-01-08T02:46:41.931Z,13.36
2023-01-08T02:49:11.588Z,13.31
2023-01-08T02:51:49.072Z,13.26
2023-01-08T02:54:26.203Z,13.23
2023-01-08T02:57:00.895Z,13.23
2023-01-08T02:59:31.445Z,13.18
2023-01-08T03:02:00.587Z,13.15
2023-01-08T03:04:31.388Z,13.12
2023-01-08T03:06:58.014Z,13.09
2023-01-08T03:09:24.611Z,13.03
2023-01-08T03:12:01.979Z,12.99
2023-01-08T03:14:36.493Z,12.99
2023-01-08T03:17:13.031Z,12.97
2023-01-08T03:19:47.244Z,12.96
2023-01-08T03:22:17.570Z,12.93
2023-01-08T03:24:48.394Z,12.93
2023-01-08T03:27:18.990Z,12.94
2023-01-08T03:29:49.170Z,12.95
2023-01-08T03:32:17.468Z,12.97
2023-01-08T03:34:47.510Z,12.99
2023-01-08T03:37:15.900Z,13.00
2023-01-08T03:39:52.935Z,12.96
2023-01-08T03:42:20.883Z,12.92
2023-01-08T03:44:47.754Z,12.89
2023-01-08T03:47:15.700Z,12.87
2023-01-08T03:49:44.347Z,12.87
2023-01-08T03:52:21.433Z,12.85
2023-01-08T03:54:48.010Z,12.79
2023-01-08T03:57:14.592Z,12.76
2023-01-08T03:59:41.229Z,12.72
2023-01-08T04:02:08.749Z,12.68
2023-01-08T04:04:35.894Z,12.68
2023-01-08T04:07:02.538Z,12.66
2023-01-08T04:09:29.068Z,12.65
2023-01-08T04:11:55.599Z,12.62
2023-01-08T04:14:22.167Z,12.61
2023-01-08T04:16:48.746Z,12.63
2023-01-08T04:19:15.354Z,12.63
2023-01-08T04:21:41.957Z,12.64
2023-01-08T04:24:08.914Z,12.66
2023-01-08T04:26:35.464Z,12.65
2023-01-08T04:29:03.891Z,12.65
2023-01-08T04:31:31.751Z,12.66
2023-01-08T04:34:00.880Z,12.68
2023-01-08T04:36:27.420Z,12.65
2023-01-08T04:38:53.946Z,12.65
2023-01-08T04:41:20.466Z,12.64
2023-01-08T04:43:47.074Z,12.61
2023-01-08T04:46:13.647Z,12.59
2023-01-08T04:48:40.420Z,12.56
2023-01-08T04:51:07.047Z,12.57
2023-01-08T04:53:36.976Z,12.55
2023-01-08T04:56:05.888Z,12.56
2023-01-08T04:58:34.406Z,12.54
2023-01-08T05:01:01.125Z,12.54
2023-01-08T05:03:27.757Z,12.54
2023-01-08T05:05:54.305Z,12.55
2023-01-08T05:08:20.903Z,12.58
2023-01-08T05:10:47.557Z,12.61
2023-01-08T05:13:15.435Z,12.65
2023-01-08T05:15:41.973Z,12.66
2023-01-08T05:18:10.242Z,12.67
2023-01-08T05:20:36.753Z,12.68
2023-01-08T05:23:03.344Z,12.69
2023-01-08T05:25:29.987Z,12.70
2023-01-08T05:27:56.561Z,12.70
2023-01-08T05:30:23.136Z,12.69
2023-01-08T05:32:49.663Z,12.67
2023-01-08T05:35:16.278Z,12.63
2023-01-08T05:37:42.894Z,12.62
2023-01-08T05:40:09.994Z,12.63
2023-01-08T05:42:37.377Z,12.63
2023-01-08T05:45:05.566Z,12.62
2023-01-08T05:47:33.172Z,12.62
2023-01-08T05:49:59.850Z,12.62
2023-01-08T05:52:27.354Z,12.64
2023-01-08T05:54:54.013Z,12.65
2023-01-08T05:57:20.572Z,12.66
2023-01-08T05:59:47.065Z,12.67
2023-01-08T06:02:13.607Z,12.67
2023-01-08T06:04:40.232Z,12.67
2023-01-08T06:07:06.811Z,12.66
2023-01-08T06:09:33.365Z,12.71
2023-01-08T06:12:02.172Z,12.70
2023-01-08T06:14:28.783Z,12.68
2023-01-08T06:16:55.341Z,12.70
2023-01-08T06:19:22.651Z,12.72
2023-01-08T06:21:49.206Z,12.74
2023-01-08T06:24:15.694Z,12.76
2023-01-08T06:26:42.166Z,12.74
2023-01-08T06:29:09.343Z,12.71
2023-01-08T06:31:36.145Z,12.69
2023-01-08T06:34:02.876Z,12.65
2023-01-08T06:36:29.375Z,12.62
2023-01-08T06:38:55.892Z,12.59
2023-01-08T06:41:22.542Z,12.56
2023-01-08T06:43:49.131Z,12.53
2023-01-08T06:46:15.776Z,12.45
2023-01-08T06:48:42.441Z,12.39
2023-01-08T06:51:09.016Z,12.36
2023-01-08T06:53:35.572Z,12.33
2023-01-08T06:56:03.770Z,12.30
2023-01-08T06:58:30.388Z,12.24
2023-01-08T07:00:59.076Z,12.20
2023-01-08T07:03:25.981Z,12.14
2023-01-08T07:05:52.979Z,12.11
2023-01-08T07:08:19.566Z,12.04
2023-01-08T07:10:46.312Z,11.96
2023-01-08T07:13:13.276Z,11.90
2023-01-08T07:15:41.041Z,11.83
2023-01-08T07:18:09.560Z,11.75
2023-01-08T07:20:36.410Z,11.67
2023-01-08T07:23:04.581Z,11.61
2023-01-08T07:25:31.829Z,11.56
2023-01-08T07:27:59.490Z,11.52
2023-01-08T07:30:30.257Z,11.49
2023-01-08T07:33:01.264Z,11.46
2023-01-08T07:35:28.878Z,11.41
2023-01-08T07:37:55.457Z,11.36
2023-01-08T07:40:22.083Z,11.33
2023-01-08T07:42:48.697Z,11.28
2023-01-08T07:45:15.190Z,11.25
2023-01-08T07:47:41.800Z,11.23
2023-01-08T07:50:08.788Z,11.19
2023-01-08T07:52:35.372Z,11.17
2023-01-08T07:55:01.902Z,11.11
2023-01-08T07:57:29.663Z,11.10
2023-01-08T07:59:56.190Z,11.10
2023-01-08T08:02:22.824Z,11.09
2023-01-08T08:04:49.446Z,11.07
2023-01-08T08:07:15.941Z,11.04
2023-01-08T08:09:42.468Z,11.02
2023-01-08T08:12:09.137Z,10.99
2023-01-08T08:14:35.701Z,10.96
2023-01-08T08:17:02.263Z,10.91
2023-01-08T08:19:28.787Z,10.90
2023-01-08T08:21:55.538Z,10.92
2023-01-08T08:24:22.128Z,10.94
2023-01-08T08:26:48.751Z,10.95
2023-01-08T08:29:15.334Z,10.99
2023-01-08T08:31:42.631Z,11.05
2023-01-08T08:34:09.168Z,11.09
2023-01-08T08:36:35.786Z,11.15
2023-01-08T08:39:02.867Z,11.14
2023-01-08T08:41:29.421Z,11.16
2023-01-08T08:43:55.945Z,11.18
2023-01-08T08:46:22.609Z,11.19
2023-01-08T08:48:49.127Z,11.25
2023-01-08T08:51:15.644Z,11.34
2023-01-08T08:53:42.274Z,11.44
2023-01-08T08:56:09.994Z,11.57
2023-01-08T08:58:36.655Z,11.70
2023-01-08T09:01:04.327Z,11.80
2023-01-08T09:03:31.258Z,11.85
2023-01-08T09:05:59.760Z,11.89
2023-01-08T09:08:26.639Z,11.91
2023-01-08T09:10:53.294Z,11.93
2023-01-08T09:13:19.979Z,11.96
2023-01-08T09:15:46.531Z,11.96
2023-01-08T09:18:15.098Z,11.96
2023-01-08T09:20:42.643Z,11.93
2023-01-08T09:23:09.734Z,11.87
2023-01-08T09:25:36.273Z,11.86
2023-01-08T09:28:07.739Z,11.84
2023-01-08T09:30:34.812Z,11.81
2023-01-08T09:33:03.308Z,11.77
2023-01-08T09:35:34.027Z,11.74
2023-01-08T09:38:00.915Z,11.74
2023-01-08T09:41:08.659Z,11.72
2023-01-08T09:43:39.009Z,11.76
2023-01-08T09:46:07.707Z,11.78
2023-01-08T09:48:40.118Z,11.81
2023-01-08T09:51:13.181Z,11.82
2023-01-08T09:53:40.271Z,11.83
2023-01-08T09:56:14.516Z,11.87
2023-01-08T09:58:46.546Z,11.91
2023-01-08T10:01:16.113Z,11.94
2023-01-08T10:03:50.722Z,11.98
2023-01-08T10:06:17.985Z,12.02
2023-01-08T10:11:15.330Z,12.04
2023-01-08T10:13:48.265Z,12.04
2023-01-08T10:16:24.910Z,12.05
2023-01-08T10:18:51.531Z,12.07
2023-01-08T10:21:18.320Z,12.07
2023-01-08T10:23:53.062Z,12.09
2023-01-08T10:26:32.061Z,12.12
2023-01-08T10:29:13.575Z,12.14
2023-01-08T10:31:56.141Z,12.19
2023-01-08T10:34:47.248Z,12.22
2023-01-08T10:37:23.217Z,12.28
2023-01-08T10:39:51.556Z,12.34
2023-01-08T10:42:20.860Z,12.39
2023-01-08T10:44:58.401Z,12.45
2023-01-08T10:47:27.614Z,12.47
2023-01-08T10:49:54.638Z,12.49
2023-01-08T10:52:28.290Z,12.50
2023-01-08T10:54:55.413Z,12.53
2023-01-08T10:57:28.841Z,12.54
2023-01-08T10:59:56.195Z,12.56
2023-01-08T11:02:28.796Z,12.58
2023-01-08T11:04:55.765Z,12.60
2023-01-08T11:07:24.061Z,12.62
2023-01-08T11:09:52.021Z,12.67
2023-01-08T11:12:39.817Z,12.76
2023-01-08T11:15:40.165Z,12.89
2023-01-08T11:18:20.482Z,13.05
2023-01-08T11:20:48.279Z,13.22
2023-01-08T11:23:26.492Z,13.38
2023-01-08T11:26:02.155Z,13.57
2023-01-08T11:28:54.716Z,13.76
2023-01-08T11:31:41.847Z,13.95
2023-01-08T11:34:18.115Z,14.10
2023-01-08T11:36:51.090Z,14.25
2023-01-08T11:39:18.484Z,14.38
2023-01-08T11:42:10.231Z,14.50
2023-01-08T11:44:41.198Z,14.58
2023-01-08T11:48:04.261Z,14.60
2023-01-08T11:50:38.457Z,14.62
2023-01-08T11:53:13.913Z,14.63
2023-01-08T11:55:49.210Z,14.68
2023-01-08T11:58:28.335Z,14.75
2023-01-08T12:01:28.831Z,14.73
2023-01-08T12:04:13.644Z,14.67
2023-01-08T12:07:04.384Z,14.56
2023-01-08T12:09:46.186Z,14.46
2023-01-08T12:12:18.450Z,14.33
2023-01-08T12:14:58.580Z,14.24
2023-01-08T12:17:43.669Z,14.23
2023-01-08T12:20:29.123Z,14.23
2023-01-08T12:23:14.019Z,14.31
2023-01-08T12:26:11.446Z,14.39
2023-01-08T12:28:37.934Z,14.44
2023-01-08T12:31:07.329Z,14.49
2023-01-08T12:33:37.210Z,14.49
2023-01-08T12:36:10.621Z,14.54
2023-01-08T12:38:44.581Z,14.58
2023-01-08T12:41:13.407Z,14.64
2023-01-08T12:43:42.897Z,14.66
2023-01-08T12:46:14.004Z,14.70
2023-01-08T12:48:41.640Z,14.76
2023-01-08T12:51:19.159Z,14.72
2023-01-08T12:54:09.497Z,14.67
2023-01-08T12:56:49.879Z,14.60
2023-01-08T12:59:39.782Z,14.53
2023-01-08T13:02:36.269Z,14.47
2023-01-08T13:05:20.217Z,14.42
2023-01-08T13:07:49.359Z,14.36
2023-01-08T13:10:27.794Z,14.36
2023-01-08T13:12:55.456Z,14.40
2023-01-08T13:15:25.911Z,14.42
2023-01-08T13:17:55.611Z,14.44
2023-01-08T13:20:26.136Z,14.46
2023-01-08T13:22:58.903Z,14.45
2023-01-08T13:25:25.617Z,14.47
2023-01-08T13:27:52.203Z,14.47
2023-01-08T13:30:40.126Z,14.42
2023-01-08T13:33:35.696Z,14.39
2023-01-08T13:36:30.469Z,14.34
2023-01-08T13:39:03.239Z,14.30
2023-01-08T13:41:40.084Z,14.30
2023-01-08T13:44:21.527Z,14.26
2023-01-08T13:46:55.738Z,14.24
2023-01-08T13:49:33.782Z,14.24
2023-01-08T13:52:00.513Z,14.28
2023-01-08T13:54:35.544Z,14.27
2023-01-08T13:57:06.116Z,14.26
2023-01-08T13:59:48.855Z,14.24
2023-01-08T14:02:26.570Z,14.22
2023-01-08T14:04:54.708Z,14.17
2023-01-08T14:07:23.697Z,14.15
2023-01-08T14:09:50.645Z,14.14
2023-01-08T14:12:23.070Z,14.10
2023-01-08T14:14:52.893Z,14.09
2023-01-08T14:17:31.015Z,14.08
2023-01-08T14:19:58.546Z,14.07
2023-01-08T14:22:35.932Z,14.06
2023-01-08T14:25:06.378Z,14.08
2023-01-08T14:27:33.830Z,14.07
2023-01-08T14:30:00.917Z,14.06
2023-01-08T14:32:30.427Z,14.06
2023-01-08T14:35:00.161Z,14.04
2023-01-08T14:37:26.766Z,14.00
2023-01-08T14:39:54.948Z,13.98
2023-01-08T14:42:44.431Z,13.97
2023-01-08T14:45:22.598Z,13.94
2023-01-08T14:47:53.133Z,13.91
2023-01-08T14:50:21.835Z,13.90
2023-01-08T14:52:49.495Z,13.87
2023-01-08T14:55:19.323Z,13.87
2023-01-08T14:57:48.504Z,13.84
2023-01-08T15:00:22.544Z,13.80
2023-01-08T15:02:49.693Z,13.78
2023-01-08T15:05:27.096Z,13.74
2023-01-08T15:08:21.937Z,13.70
2023-01-08T15:10:59.380Z,13.63
2023-01-08T15:13:31.201Z,13.58
2023-01-08T15:16:03.626Z,13.54
2023-01-08T15:18:30.255Z,13.48
2023-01-08T15:20:57.619Z,13.41
2023-01-08T15:23:37.659Z,13.34
2023-01-08T15:26:04.616Z,13.26
2023-01-08T15:28:31.175Z,13.21
2023-01-08T15:30:58.031Z,13.19
2023-01-08T15:33:26.536Z,13.11
2023-01-08T15:35:53.350Z,13.05
2023-01-08T15:38:24.011Z,12.96
2023-01-08T15:40:52.886Z,12.89
2023-01-08T15:43:19.617Z,12.83
2023-01-08T15:45:48.537Z,12.78
2023-01-08T15:48:15.213Z,12.72
2023-01-08T15:50:43.938Z,12.64
2023-01-08T15:53:13.140Z,12.61
2023-01-08T15:55:43.278Z,12.57
2023-01-08T15:58:14.255Z,12.53
2023-01-08T16:00:42.582Z,12.51
2023-01-08T16:03:09.446Z,12.47
2023-01-08T16:05:36.825Z,12.40
2023-01-08T16:08:04.653Z,12.37
2023-01-08T16:10:31.755Z,12.36
2023-01-08T16:13:00.494Z,12.32
2023-01-08T16:15:30.624Z,12.30
2023-01-08T16:17:58.176Z,12.26
2023-01-08T16:20:24.984Z,12.22
2023-01-08T16:22:51.602Z,12.17
2023-01-08T16:25:18.112Z,12.12
2023-01-08T16:27:44.648Z,12.09
2023-01-08T16:30:15.370Z,12.06
2023-01-08T16:32:42.812Z,12.06
2023-01-08T16:35:10.825Z,12.04
2023-01-08T16:37:37.741Z,12.00
2023-01-08T16:40:04.862Z,11.96
2023-01-08T16:42:31.369Z,11.94
2023-01-08T16:44:57.909Z,11.91
2023-01-08T16:47:24.521Z,11.93
2023-01-08T16:49:51.142Z,11.93
2023-01-08T16:52:18.254Z,11.95
2023-01-08T16:54:45.378Z,11.96
2023-01-08T16:57:12.208Z,11.98
2023-01-08T16:59:38.710Z,12.00
2023-01-08T17:02:05.635Z,12.01
2023-01-08T17:04:32.507Z,12.01
2023-01-08T17:06:59.024Z,12.01
2023-01-08T17:09:25.684Z,12.03
2023-01-08T17:11:52.325Z,12.03
2023-01-08T17:14:18.992Z,12.05
2023-01-08T17:16:45.786Z,12.07
2023-01-08T17:19:12.816Z,12.09
2023-01-08T17:21:39.520Z,12.13
2023-01-08T17:24:06.957Z,12.17
2023-01-08T17:26:33.709Z,12.17
2023-01-08T17:29:00.298Z,12.18
2023-01-08T17:31:26.883Z,12.18
2023-01-08T17:33:54.457Z,12.16
2023-01-08T17:36:24.003Z,12.15
2023-01-08T17:38:52.906Z,12.13
2023-01-08T17:41:40.456Z,12.09
2023-01-08T17:44:09.106Z,12.03
2023-01-08T17:46:37.613Z,11.96
2023-01-08T17:49:04.377Z,11.90
2023-01-08T17:51:32.535Z,11.87
2023-01-08T17:53:59.391Z,11.84
2023-01-08T17:56:25.951Z,11.80
2023-01-08T17:58:52.707Z,11.76
2023-01-08T18:01:19.750Z,11.71
2023-01-08T18:03:46.585Z,11.62
2023-01-08T18:06:13.910Z,11.55
2023-01-08T18:08:40.958Z,11.50
2023-01-08T18:11:09.127Z,11.46
2023-01-08T18:13:36.147Z,11.43
2023-01-08T18:16:05.090Z,11.41
2023-01-08T18:18:31.634Z,11.37
2023-01-08T18:20:58.126Z,11.35
2023-01-08T18:23:24.901Z,11.35
2023-01-08T18:25:51.385Z,11.33
2023-01-08T18:28:18.233Z,11.32
2023-01-08T18:30:45.907Z,11.32
2023-01-08T18:33:14.396Z,11.30
2023-01-08T18:35:42.584Z,11.32
2023-01-08T18:38:18.455Z,11.30
2023-01-08T18:40:46.151Z,11.29
2023-01-08T18:43:12.963Z,11.29
2023-01-08T18:45:39.923Z,11.30
2023-01-08T18:48:09.396Z,11.31
2023-01-08T18:50:40.366Z,11.33
2023-01-08T18:53:09.199Z,11.36
2023-01-08T18:55:37.227Z,11.38
2023-01-08T18:58:04.589Z,11.39
2023-01-08T19:00:31.285Z,11.42
2023-01-08T19:02:57.910Z,11.43
2023-01-08T19:05:24.601Z,11.44
2023-01-08T19:07:51.288Z,11.44
2023-01-08T19:10:18.007Z,11.39
2023-01-08T19:12:44.838Z,11.34
2023-01-08T19:15:12.186Z,11.31
2023-01-08T19:17:39.291Z,11.28
2023-01-08T19:20:06.534Z,11.26
2023-01-08T19:22:33.199Z,11.24
2023-01-08T19:25:00.034Z,11.24
2023-01-08T19:27:26.670Z,11.24
2023-01-08T19:29:53.281Z,11.22
2023-01-08T19:32:19.758Z,11.23
2023-01-08T19:34:47.063Z,11.24
2023-01-08T19:37:14.993Z,11.26
2023-01-08T19:39:41.734Z,11.29
2023-01-08T19:42:28.697Z,11.32
2023-01-08T19:44:55.632Z,11.35
2023-01-08T19:47:22.390Z,11.36
2023-01-08T19:49:49.137Z,11.38
2023-01-08T19:52:16.678Z,11.44
2023-01-08T19:54:43.631Z,11.48
2023-01-08T19:57:10.207Z,11.50
2023-01-08T19:59:36.741Z,11.50
2023-01-08T20:02:03.431Z,11.51
2023-01-08T20:04:36.449Z,11.50
2023-01-08T20:07:03.163Z,11.46
2023-01-08T20:09:29.782Z,11.46
2023-01-08T20:11:56.566Z,11.46
2023-01-08T20:14:23.053Z,11.49
2023-01-08T20:16:49.557Z,11.50
2023-01-08T20:19:16.132Z,11.52
2023-01-08T20:21:42.719Z,11.54
2023-01-08T20:24:15.182Z,11.56
2023-01-08T20:26:45.520Z,11.57
2023-01-08T20:29:13.658Z,11.58
2023-01-08T20:31:41.276Z,11.61
2023-01-08T20:34:15.233Z,11.64
2023-01-08T20:36:43.042Z,11.66
2023-01-08T20:39:13.099Z,11.69
2023-01-08T20:41:43.536Z,11.70
2023-01-08T20:44:16.790Z,11.71
2023-01-08T20:46:43.880Z,11.72
2023-01-08T20:49:13.983Z,11.71
2023-01-08T20:51:54.396Z,11.73
2023-01-08T20:54:25.003Z,11.72
2023-01-08T20:56:51.587Z,11.73
2023-01-08T20:59:18.231Z,11.71
2023-01-08T21:01:44.911Z,11.69
2023-01-08T21:04:11.989Z,11.71
2023-01-08T21:06:38.853Z,11.74
2023-01-08T21:09:07.968Z,11.77
2023-01-08T21:11:37.189Z,11.79
2023-01-08T21:14:04.218Z,11.80
2023-01-08T21:16:34.694Z,11.81
2023-01-08T21:19:02.014Z,11.80
2023-01-08T21:21:32.905Z,11.78
2023-01-08T21:24:04.983Z,11.79
2023-01-08T21:26:33.865Z,11.76
2023-01-08T21:29:03.107Z,11.77
2023-01-08T21:31:30.241Z,11.80
2023-01-08T21:33:58.733Z,11.80
2023-01-08T21:36:27.846Z,11.81
2023-01-08T21:38:56.682Z,11.83
2023-01-08T21:41:43.595Z,11.85
2023-01-08T21:44:47.395Z,11.85
2023-01-08T21:47:19.898Z,11.83
2023-01-08T21:49:46.709Z,11.82
2023-01-08T21:52:32.196Z,11.80
2023-01-08T21:54:58.810Z,11.81
2023-01-08T21:57:27.891Z,11.81
2023-01-08T21:59:55.397Z,11.84
2023-01-08T22:02:24.115Z,11.84
2023-01-08T22:04:54.136Z,11.87
2023-01-08T22:07:20.683Z,11.86
2023-01-08T22:09:47.207Z,11.85
2023-01-08T22:12:15.771Z,11.85
2023-01-08T22:14:42.412Z,11.86
2023-01-08T22:17:09.414Z,11.89
2023-01-08T22:19:39.999Z,11.91
2023-01-08T22:22:10.158Z,11.93
2023-01-08T22:24:37.423Z,11.93
2023-01-08T22:27:03.914Z,11.94
2023-01-08T22:29:30.560Z,11.97
2023-01-08T22:31:57.396Z,12.01
2023-01-08T22:34:23.975Z,12.03
2023-01-08T22:36:51.527Z,12.04
2023-01-08T22:39:19.009Z,12.03
2023-01-08T22:41:45.499Z,12.06
2023-01-08T22:44:12.604Z,12.07
2023-01-08T22:46:39.496Z,12.08
2023-01-08T22:49:06.342Z,12.08
2023-01-08T22:51:32.933Z,12.12
2023-01-08T22:53:59.561Z,12.15
2023-01-08T22:56:26.440Z,12.19
2023-01-08T22:58:53.722Z,12.22
2023-01-08T23:01:23.408Z,12.23
2023-01-08T23:03:55.945Z,12.23
2023-01-08T23:06:23.817Z,12.21
2023-01-08T23:08:50.393Z,12.19
2023-01-08T23:11:19.453Z,12.16
2023-01-08T23:13:48.932Z,12.15
2023-01-08T23:16:17.863Z,12.14
2023-01-08T23:18:44.582Z,12.14
2023-01-08T23:21:17.563Z,12.13
2023-01-08T23:23:44.850Z,12.13
2023-01-08T23:26:17.976Z,12.12
2023-01-08T23:28:45.295Z,12.12
2023-01-08T23:31:15.267Z,12.13
2023-01-08T23:33:42.101Z,12.12
2023-01-08T23:36:12.338Z,12.08
2023-01-08T23:38:38.987Z,12.08
2023-01-08T23:41:07.171Z,12.07
2023-01-08T23:43:33.763Z,12.06
2023-01-08T23:46:04.754Z,12.06
2023-01-08T23:48:31.409Z,12.08
2023-01-08T23:50:58.238Z,12.08
2023-01-08T23:53:24.969Z,12.08
2023-01-08T23:55:51.554Z,12.08
2023-01-08T23:58:18.450Z,12.06
